createdAt,value
2018-04-25T00:01:03.601Z,3.47
2018-04-25T00:03:29.929Z,3.40
2018-04-25T00:05:56.245Z,3.60
2018-04-25T00:08:22.577Z,3.43
2018-04-25T00:10:48.916Z,4.10
2018-04-25T00:13:15.269Z,3.43
2018-04-25T00:15:41.916Z,3.27
2018-04-25T00:18:08.249Z,2.90
2018-04-25T00:20:34.541Z,4.03
2018-04-25T00:23:00.845Z,3.77
2018-04-25T00:25:27.233Z,2.90
2018-04-25T00:27:53.532Z,3.20
2018-04-25T00:30:20.304Z,3.23
2018-04-25T00:32:46.658Z,4.13
2018-04-25T00:35:13.695Z,3.67
2018-04-25T00:37:40.491Z,3.33
2018-04-25T00:40:06.827Z,3.27
2018-04-25T00:42:33.309Z,2.73
2018-04-25T00:45:00.379Z,3.30
2018-04-25T00:47:26.718Z,3.90
2018-04-25T00:49:53.039Z,3.93
2018-04-25T00:52:20.097Z,2.77
2018-04-25T00:54:46.425Z,2.73
2018-04-25T00:57:12.740Z,3.70
2018-04-25T00:59:39.809Z,3.23
2018-04-25T01:02:07.182Z,3.17
2018-04-25T01:04:33.488Z,3.07
2018-04-25T01:06:59.825Z,3.20
2018-04-25T01:09:26.167Z,3.20
2018-04-25T01:11:52.551Z,3.53
2018-04-25T01:14:18.828Z,3.30
2018-04-25T01:16:45.172Z,3.83
2018-04-25T01:19:11.503Z,3.90
2018-04-25T01:21:37.839Z,2.90
2018-04-25T01:24:05.096Z,3.40
2018-04-25T01:26:31.634Z,3.97
2018-04-25T01:28:59.065Z,3.87
2018-04-25T01:31:37.887Z,3.37
2018-04-25T01:34:07.288Z,3.30
2018-04-25T01:36:37.437Z,3.63
2018-04-25T01:39:06.590Z,3.53
2018-04-25T01:41:33.011Z,3.57
2018-04-25T01:43:59.422Z,3.33
2018-04-25T01:46:27.656Z,3.23
2018-04-25T01:48:56.957Z,3.77
2018-04-25T01:51:35.711Z,3.90
2018-04-25T01:54:15.210Z,4.17
2018-04-25T01:56:53.838Z,3.60
2018-04-25T01:59:32.666Z,3.50
2018-04-25T02:01:58.933Z,3.77
2018-04-25T02:04:26.053Z,3.80
2018-04-25T02:06:52.422Z,4.20
2018-04-25T02:09:20.717Z,3.53
2018-04-25T02:11:47.245Z,3.93
2018-04-25T02:14:13.649Z,3.63
2018-04-25T02:16:40.758Z,3.13
2018-04-25T02:19:07.126Z,3.80
2018-04-25T02:21:34.361Z,3.50
2018-04-25T02:24:01.714Z,3.33
2018-04-25T02:26:28.225Z,4.27
2018-04-25T02:28:54.622Z,4.20
2018-04-25T02:31:22.209Z,4.23
2018-04-25T02:33:48.613Z,3.60
2018-04-25T02:36:15.722Z,3.30
2018-04-25T02:38:42.110Z,3.70
2018-04-25T02:41:08.577Z,3.90
2018-04-25T02:43:35.003Z,4.40
2018-04-25T02:46:02.113Z,4.07
2018-04-25T02:48:29.464Z,3.10
2018-04-25T02:50:56.601Z,3.80
2018-04-25T02:53:23.777Z,3.70
2018-04-25T02:55:50.708Z,3.20
2018-04-25T02:58:17.903Z,3.73
2018-04-25T03:00:44.270Z,3.13
2018-04-25T03:03:12.100Z,3.70
2018-04-25T03:05:38.485Z,3.93
2018-04-25T03:08:06.094Z,4.03
2018-04-25T03:10:32.493Z,4.13
2018-04-25T03:12:58.853Z,3.87
2018-04-25T03:15:25.265Z,4.33
2018-04-25T03:17:51.641Z,3.93
2018-04-25T03:20:18.037Z,3.30
2018-04-25T03:22:44.446Z,3.57
2018-04-25T03:25:13.378Z,4.10
2018-04-25T03:27:41.553Z,4.40
2018-04-25T03:30:07.932Z,4.53
2018-04-25T03:32:35.044Z,4.13
2018-04-25T03:35:01.425Z,3.97
2018-04-25T03:37:27.809Z,4.00
2018-04-25T03:39:54.189Z,4.20
2018-04-25T03:42:21.318Z,4.40
2018-04-25T03:44:48.426Z,5.30
2018-04-25T03:47:15.514Z,5.00
2018-04-25T03:49:42.698Z,4.70
2018-04-25T03:52:09.081Z,4.47
2018-04-25T03:54:35.486Z,4.90
2018-04-25T03:57:01.889Z,4.73
2018-04-25T03:59:28.297Z,4.60
2018-04-25T04:01:55.450Z,5.20
2018-04-25T04:04:23.574Z,5.10
2018-04-25T04:06:49.980Z,5.63
2018-04-25T04:09:16.969Z,4.13
2018-04-25T04:11:43.396Z,4.30
2018-04-25T04:14:10.533Z,5.83
2018-04-25T04:16:36.917Z,4.20
2018-04-25T04:19:04.092Z,4.90
2018-04-25T04:21:31.082Z,4.50
2018-04-25T04:23:57.474Z,4.37
2018-04-25T04:26:23.901Z,4.70
2018-04-25T04:28:50.365Z,5.47
2018-04-25T04:31:16.726Z,4.40
2018-04-25T04:33:43.109Z,4.73
2018-04-25T04:36:09.496Z,4.60
2018-04-25T04:38:35.905Z,4.43
2018-04-25T04:41:02.306Z,4.83
2018-04-25T04:43:28.695Z,4.90
2018-04-25T04:45:55.098Z,5.53
2018-04-25T04:48:21.545Z,5.43
2018-04-25T04:50:50.453Z,5.27
2018-04-25T04:53:17.556Z,5.10
2018-04-25T04:55:43.995Z,5.47
2018-04-25T04:58:10.502Z,5.00
2018-04-25T05:00:36.880Z,4.83
2018-04-25T05:03:03.499Z,5.00
2018-04-25T05:05:29.876Z,4.70
2018-04-25T05:07:56.981Z,4.60
2018-04-25T05:10:23.376Z,5.07
2018-04-25T05:12:49.762Z,4.87
2018-04-25T05:15:16.125Z,4.47
2018-04-25T05:17:43.305Z,4.20
2018-04-25T05:20:10.466Z,5.27
2018-04-25T05:22:36.856Z,4.60
2018-04-25T05:25:04.079Z,4.87
2018-04-25T05:27:30.599Z,5.03
2018-04-25T05:29:58.007Z,4.90
2018-04-25T05:32:25.147Z,4.80
2018-04-25T05:34:52.287Z,4.90
2018-04-25T05:37:18.665Z,5.40
2018-04-25T05:39:45.698Z,5.53
2018-04-25T05:42:12.074Z,6.27
2018-04-25T05:44:38.441Z,5.20
2018-04-25T05:47:05.574Z,4.57
2018-04-25T05:49:31.953Z,5.07
2018-04-25T05:51:58.341Z,5.20
2018-04-25T05:54:24.728Z,4.80
2018-04-25T05:56:51.201Z,4.90
2018-04-25T05:59:17.607Z,5.03
2018-04-25T06:01:43.978Z,4.10
2018-04-25T06:04:10.333Z,4.70
2018-04-25T06:06:36.721Z,4.60
2018-04-25T06:09:03.147Z,4.20
2018-04-25T06:11:29.577Z,4.10
2018-04-25T06:13:55.942Z,3.93
2018-04-25T06:16:24.125Z,3.73
2018-04-25T06:18:51.342Z,4.60
2018-04-25T06:21:17.749Z,3.90
2018-04-25T06:23:44.734Z,4.43
2018-04-25T06:26:11.129Z,4.80
2018-04-25T06:28:37.485Z,4.77
2018-04-25T06:31:03.860Z,4.07
2018-04-25T06:33:30.968Z,4.63
2018-04-25T06:35:57.345Z,4.77
2018-04-25T06:38:24.445Z,4.60
2018-04-25T06:40:50.972Z,4.10
2018-04-25T06:43:17.370Z,4.00
2018-04-25T06:45:43.754Z,5.10
2018-04-25T06:48:10.103Z,3.70
2018-04-25T06:50:37.229Z,4.53
2018-04-25T06:53:03.729Z,3.63
2018-04-25T06:55:30.654Z,5.10
2018-04-25T06:57:58.797Z,3.77
2018-04-25T07:00:25.181Z,3.57
2018-04-25T07:02:51.533Z,3.80
2018-04-25T07:05:17.905Z,3.90
2018-04-25T07:07:45.013Z,4.90
2018-04-25T07:10:11.395Z,3.83
2018-04-25T07:12:38.529Z,4.33
2018-04-25T07:15:05.656Z,4.47
2018-04-25T07:17:32.009Z,3.27
2018-04-25T07:19:59.197Z,6.30
2018-04-25T07:22:25.574Z,4.03
2018-04-25T07:24:52.001Z,4.50
2018-04-25T07:27:18.505Z,3.77
2018-04-25T07:29:44.885Z,4.70
2018-04-25T07:32:12.106Z,5.00
2018-04-25T07:34:39.564Z,3.73
2018-04-25T07:37:05.929Z,4.23
2018-04-25T07:39:32.310Z,4.30
2018-04-25T07:41:58.717Z,4.70
2018-04-25T07:44:25.117Z,4.27
2018-04-25T07:46:51.481Z,4.33
2018-04-25T07:49:19.604Z,4.20
2018-04-25T07:51:45.961Z,3.97
2018-04-25T07:54:12.389Z,4.10
2018-04-25T07:56:38.745Z,4.63
2018-04-25T07:59:05.940Z,3.77
2018-04-25T08:01:32.325Z,4.20
2018-04-25T08:03:59.494Z,3.97
2018-04-25T08:06:26.590Z,4.40
2018-04-25T08:08:53.653Z,4.13
2018-04-25T08:11:19.979Z,4.17
2018-04-25T08:13:58.702Z,4.80
2018-04-25T08:19:37.161Z,3.50
2018-04-25T08:22:04.313Z,3.83
2018-04-25T08:24:31.578Z,4.67
2018-04-25T08:26:57.929Z,3.73
2018-04-25T08:29:24.373Z,4.73
2018-04-25T08:31:51.473Z,3.53
2018-04-25T08:34:18.608Z,4.83
2018-04-25T08:36:45.756Z,3.73
2018-04-25T08:39:12.146Z,4.37
2018-04-25T08:41:38.524Z,3.70
2018-04-25T08:44:05.686Z,4.20
2018-04-25T08:46:32.794Z,5.23
2018-04-25T08:48:59.193Z,4.33
2018-04-25T08:51:25.622Z,3.57
2018-04-25T08:53:52.625Z,4.30
2018-04-25T08:56:19.022Z,3.73
2018-04-25T08:58:45.413Z,4.70
2018-04-25T09:01:12.577Z,3.13
2018-04-25T09:03:39.961Z,4.27
2018-04-25T09:06:06.469Z,4.30
2018-04-25T09:08:32.841Z,3.47
2018-04-25T09:10:59.261Z,4.60
2018-04-25T09:13:26.163Z,4.70
2018-04-25T09:15:53.356Z,3.60
2018-04-25T09:18:19.789Z,3.83
2018-04-25T09:20:46.173Z,3.50
2018-04-25T09:23:13.308Z,4.30
2018-04-25T09:25:39.664Z,4.73
2018-04-25T09:28:06.809Z,3.90
2018-04-25T09:30:33.932Z,4.43
2018-04-25T09:33:00.332Z,3.90
2018-04-25T09:35:27.616Z,4.10
2018-04-25T09:37:54.732Z,3.43
2018-04-25T09:40:21.086Z,3.53
2018-04-25T09:42:48.218Z,3.23
2018-04-25T09:45:15.188Z,4.03
2018-04-25T09:47:43.049Z,3.23
2018-04-25T09:50:09.413Z,3.80
2018-04-25T09:52:36.549Z,3.70
2018-04-25T09:55:03.813Z,3.00
2018-04-25T09:57:30.249Z,3.30
2018-04-25T09:59:56.626Z,3.60
2018-04-25T10:02:29.177Z,3.13
2018-04-25T10:04:55.549Z,3.63
2018-04-25T10:07:21.933Z,3.60
2018-04-25T10:09:48.296Z,3.93
2018-04-25T10:12:14.676Z,3.27
2018-04-25T10:14:41.809Z,3.10
2018-04-25T10:17:08.180Z,3.60
2018-04-25T10:19:34.590Z,3.17
2018-04-25T10:22:01.687Z,3.47
2018-04-25T10:24:28.074Z,3.70
2018-04-25T10:26:55.187Z,3.67
2018-04-25T10:29:21.638Z,3.70
2018-04-25T10:31:48.013Z,3.63
2018-04-25T10:34:15.497Z,3.00
2018-04-25T10:36:41.881Z,3.60
2018-04-25T10:39:09.053Z,3.90
2018-04-25T10:41:35.446Z,3.70
2018-04-25T10:44:01.818Z,4.63
2018-04-25T10:46:28.177Z,3.37
2018-04-25T10:48:55.636Z,3.00
2018-04-25T10:51:21.997Z,3.47
2018-04-25T10:53:48.373Z,3.50
2018-04-25T10:56:14.726Z,3.43
2018-04-25T10:58:41.121Z,3.50
2018-04-25T11:01:07.478Z,3.27
2018-04-25T11:03:33.850Z,3.80
2018-04-25T11:06:00.198Z,3.60
2018-04-25T11:08:27.401Z,2.90
2018-04-25T11:10:53.834Z,2.70
2018-04-25T11:13:20.201Z,3.40
2018-04-25T11:15:46.553Z,3.37
2018-04-25T11:18:13.686Z,3.10
2018-04-25T11:20:40.042Z,3.33
2018-04-25T11:23:06.429Z,3.60
2018-04-25T11:25:32.778Z,3.17
2018-04-25T11:27:59.170Z,2.80
2018-04-25T11:30:25.534Z,3.10
2018-04-25T11:32:51.929Z,2.80
2018-04-25T11:35:18.287Z,3.20
2018-04-25T11:37:44.653Z,3.10
2018-04-25T11:40:11.757Z,3.30
2018-04-25T11:42:38.141Z,3.00
2018-04-25T11:45:04.557Z,2.73
2018-04-25T11:47:31.695Z,2.77
2018-04-25T11:49:58.082Z,3.47
2018-04-25T11:52:24.473Z,3.53
2018-04-25T11:54:51.573Z,3.00
2018-04-25T11:57:17.944Z,2.87
2018-04-25T11:59:44.324Z,3.30
2018-04-25T12:02:10.722Z,3.20
2018-04-25T12:04:37.818Z,3.20
2018-04-25T12:07:04.773Z,3.37
2018-04-25T12:09:31.310Z,3.13
2018-04-25T12:11:57.711Z,3.70
2018-04-25T12:14:24.810Z,3.43
2018-04-25T12:16:51.312Z,3.80
2018-04-25T12:19:17.692Z,3.73
2018-04-25T12:21:45.890Z,3.77
2018-04-25T12:24:12.238Z,2.87
2018-04-25T12:26:38.633Z,3.10
2018-04-25T12:29:05.832Z,3.07
2018-04-25T12:31:32.205Z,4.03
2018-04-25T12:33:59.314Z,3.20
2018-04-25T12:36:25.713Z,3.63
2018-04-25T12:38:52.065Z,3.57
2018-04-25T12:41:18.450Z,3.40
2018-04-25T12:43:45.568Z,3.50
2018-04-25T12:46:13.018Z,2.90
2018-04-25T12:48:39.373Z,3.70
2018-04-25T12:51:05.761Z,3.37
2018-04-25T12:53:32.112Z,3.60
2018-04-25T12:55:58.525Z,3.77
2018-04-25T12:58:24.897Z,2.67
2018-04-25T13:00:51.313Z,3.30
2018-04-25T13:03:18.475Z,2.90
2018-04-25T13:05:44.854Z,3.40
2018-04-25T13:08:11.210Z,2.80
2018-04-25T13:10:37.581Z,3.13
2018-04-25T13:13:05.417Z,2.60
2018-04-25T13:15:31.809Z,3.67
2018-04-25T13:17:58.905Z,3.33
2018-04-25T13:20:25.317Z,3.70
2018-04-25T13:22:51.865Z,3.53
2018-04-25T13:25:18.241Z,2.97
2018-04-25T13:27:45.343Z,3.77
2018-04-25T13:30:11.718Z,3.93
2018-04-25T13:32:38.828Z,3.33
2018-04-25T13:35:06.623Z,2.70
2018-04-25T13:37:32.983Z,3.57
2018-04-25T13:40:00.175Z,2.70
2018-04-25T13:42:26.565Z,3.70
2018-04-25T13:44:53.754Z,3.73
2018-04-25T13:47:20.290Z,3.63
2018-04-25T13:49:46.657Z,4.20
2018-04-25T13:52:13.005Z,3.40
2018-04-25T13:54:40.133Z,3.70
2018-04-25T13:57:06.489Z,3.20
2018-04-25T13:59:33.597Z,3.40
2018-04-25T14:01:59.958Z,3.33
2018-04-25T14:04:27.073Z,3.40
2018-04-25T14:06:53.443Z,3.30
2018-04-25T14:09:19.826Z,3.90
2018-04-25T14:11:46.181Z,3.90
2018-04-25T14:14:12.549Z,4.40
2018-04-25T14:16:39.654Z,4.00
2018-04-25T14:19:06.021Z,3.70
2018-04-25T14:21:33.191Z,4.47
2018-04-25T14:23:59.585Z,4.40
2018-04-25T14:26:25.985Z,3.57
2018-04-25T14:28:52.352Z,3.60
2018-04-25T14:31:19.450Z,3.37
2018-04-25T14:33:45.833Z,3.83
2018-04-25T14:36:12.205Z,4.17
2018-04-25T14:38:38.609Z,3.70
2018-04-25T14:41:04.999Z,4.50
2018-04-25T14:43:31.425Z,4.00
2018-04-25T14:45:57.810Z,4.20
2018-04-25T14:48:24.952Z,3.93
2018-04-25T14:50:52.051Z,4.60
2018-04-25T14:53:18.433Z,4.00
2018-04-25T14:55:46.155Z,4.20
2018-04-25T14:58:12.580Z,3.97
2018-04-25T15:00:38.937Z,3.83
2018-04-25T15:03:05.344Z,4.40
2018-04-25T15:05:32.494Z,3.23
2018-04-25T15:08:00.055Z,4.20
2018-04-25T15:10:26.410Z,3.73
2018-04-25T15:12:52.803Z,4.87
2018-04-25T15:15:19.169Z,4.27
2018-04-25T15:17:45.541Z,5.20
2018-04-25T15:20:12.643Z,3.07
2018-04-25T15:22:39.038Z,4.10
2018-04-25T15:25:05.413Z,4.00
2018-04-25T15:27:31.817Z,3.40
2018-04-25T15:29:58.197Z,4.30
2018-04-25T15:32:25.202Z,3.67
2018-04-25T15:34:52.157Z,3.73
2018-04-25T15:37:18.541Z,4.67
2018-04-25T15:39:45.642Z,3.97
2018-04-25T15:42:12.012Z,4.80
2018-04-25T15:44:39.143Z,3.40
2018-04-25T15:47:06.289Z,4.20
2018-04-25T15:49:32.677Z,3.67
2018-04-25T15:51:59.063Z,4.33
2018-04-25T15:54:26.162Z,3.93
2018-04-25T15:56:52.603Z,3.60
2018-04-25T15:59:19.038Z,4.67
2018-04-25T16:01:46.470Z,4.33
2018-04-25T16:04:13.597Z,4.33
2018-04-25T16:06:40.708Z,4.60
2018-04-25T16:09:07.070Z,4.10
2018-04-25T16:11:35.217Z,4.27
2018-04-25T16:14:01.629Z,4.50
2018-04-25T16:16:28.033Z,4.43
2018-04-25T16:18:54.465Z,3.53
2018-04-25T16:21:20.858Z,4.10
2018-04-25T16:23:47.979Z,5.40
2018-04-25T16:26:14.359Z,4.47
2018-04-25T16:28:41.529Z,4.40
2018-04-25T16:31:07.977Z,4.10
2018-04-25T16:33:35.065Z,4.40
2018-04-25T16:36:01.465Z,4.20
2018-04-25T16:38:27.850Z,4.00
2018-04-25T16:40:56.029Z,4.43
2018-04-25T16:43:23.130Z,4.20
2018-04-25T16:45:49.513Z,4.90
2018-04-25T16:48:16.629Z,4.40
2018-04-25T16:50:44.010Z,4.70
2018-04-25T16:53:11.117Z,7.73
2018-04-25T16:55:37.642Z,3.80
2018-04-25T16:58:04.035Z,4.57
2018-04-25T17:00:31.392Z,4.10
2018-04-25T17:02:58.583Z,4.30
2018-04-25T17:05:24.953Z,4.30
2018-04-25T17:07:51.428Z,4.13
2018-04-25T17:10:19.591Z,4.97
2018-04-25T17:12:45.974Z,4.33
2018-04-25T17:15:12.335Z,4.10
2018-04-25T17:17:39.457Z,4.40
2018-04-25T17:20:05.826Z,3.93
2018-04-25T17:22:32.962Z,4.27
2018-04-25T17:25:00.078Z,4.57
2018-04-25T17:27:27.464Z,4.40
2018-04-25T17:29:54.671Z,5.13
2018-04-25T17:32:21.057Z,5.30
2018-04-25T17:34:49.248Z,5.10
2018-04-25T17:37:15.806Z,5.50
2018-04-25T17:39:42.169Z,5.73
2018-04-25T17:42:09.290Z,4.30
2018-04-25T17:44:35.713Z,4.50
2018-04-25T17:47:02.113Z,4.50
2018-04-25T17:49:28.485Z,4.30
2018-04-25T17:51:55.370Z,5.73
2018-04-25T17:54:21.729Z,5.40
2018-04-25T17:56:48.842Z,5.70
2018-04-25T17:59:16.266Z,4.60
2018-04-25T18:01:42.646Z,4.13
2018-04-25T18:04:09.750Z,5.43
2018-04-25T18:06:36.199Z,4.30
2018-04-25T18:09:02.609Z,5.00
2018-04-25T18:11:29.095Z,4.60
2018-04-25T18:13:55.405Z,3.53
2018-04-25T18:16:21.797Z,4.47
2018-04-25T18:18:48.150Z,4.27
2018-04-25T18:21:14.555Z,4.10
2018-04-25T18:23:41.558Z,3.70
2018-04-25T18:26:07.969Z,5.63
2018-04-25T18:28:34.329Z,4.20
2018-04-25T18:31:01.461Z,4.50
2018-04-25T18:33:27.912Z,5.17
2018-04-25T18:35:54.389Z,4.47
2018-04-25T18:38:20.779Z,4.10
2018-04-25T18:40:49.646Z,4.20
2018-04-25T18:43:16.594Z,4.17
2018-04-25T18:45:43.018Z,4.47
2018-04-25T18:48:09.462Z,4.30
2018-04-25T18:50:36.888Z,4.37
2018-04-25T18:53:03.270Z,4.37
2018-04-25T18:55:29.649Z,4.00
2018-04-25T18:57:56.086Z,4.10
2018-04-25T19:00:22.471Z,4.10
2018-04-25T19:02:49.873Z,4.13
2018-04-25T19:05:17.381Z,3.90
2018-04-25T19:07:44.554Z,4.50
2018-04-25T19:10:11.658Z,4.80
2018-04-25T19:12:39.052Z,4.80
2018-04-25T19:15:06.158Z,4.07
2018-04-25T19:17:32.546Z,4.60
2018-04-25T19:20:00.103Z,4.77
2018-04-25T19:22:27.265Z,4.10
2018-04-25T19:24:54.265Z,4.10
2018-04-25T19:27:22.127Z,4.43
2018-04-25T19:29:48.532Z,4.90
2018-04-25T19:32:15.070Z,4.00
2018-04-25T19:34:41.609Z,5.13
2018-04-25T19:37:08.035Z,4.80
2018-04-25T19:39:35.153Z,4.23
2018-04-25T19:42:01.526Z,4.23
2018-04-25T19:44:27.926Z,4.37
2018-04-25T19:46:54.298Z,4.50
2018-04-25T19:49:20.800Z,4.40
2018-04-25T19:51:47.178Z,3.70
2018-04-25T19:54:13.589Z,5.40
2018-04-25T19:56:39.971Z,5.50
2018-04-25T19:59:07.176Z,4.70
2018-04-25T20:01:34.202Z,5.13
2018-04-25T20:04:00.938Z,5.90
2018-04-25T20:06:28.357Z,4.50
2018-04-25T20:08:55.514Z,4.67
2018-04-25T20:11:22.698Z,5.17
2018-04-25T20:13:49.274Z,4.90
2018-04-25T20:16:17.142Z,4.90
2018-04-25T20:18:43.850Z,5.00
2018-04-25T20:21:10.286Z,4.60
2018-04-25T20:23:36.901Z,5.13
2018-04-25T20:26:04.073Z,4.60
2018-04-25T20:28:30.585Z,4.40
2018-04-25T20:30:56.956Z,5.37
2018-04-25T20:33:23.854Z,5.47
2018-04-25T20:35:50.410Z,4.80
2018-04-25T20:38:17.383Z,4.83
2018-04-25T20:40:43.773Z,4.43
2018-04-25T20:43:10.426Z,4.30
2018-04-25T20:45:36.835Z,4.13
2018-04-25T20:48:03.257Z,4.93
2018-04-25T20:50:30.449Z,5.00
2018-04-25T20:52:56.929Z,4.33
2018-04-25T20:55:24.241Z,4.63
2018-04-25T20:57:51.705Z,5.57
2018-04-25T21:00:18.334Z,5.20
2018-04-25T21:02:46.180Z,5.30
2018-04-25T21:05:12.632Z,5.10
2018-04-25T21:07:39.167Z,6.43
2018-04-25T21:10:06.567Z,6.03
2018-04-25T21:12:34.186Z,5.50
2018-04-25T21:15:00.601Z,6.00
2018-04-25T21:17:27.097Z,4.57
2018-04-25T21:19:55.259Z,4.40
2018-04-25T21:22:22.370Z,6.00
2018-04-25T21:24:48.831Z,4.73
2018-04-25T21:27:15.322Z,4.90
2018-04-25T21:29:41.762Z,5.47
2018-04-25T21:32:10.310Z,4.50
2018-04-25T21:34:37.462Z,5.50
2018-04-25T21:37:03.894Z,4.60
2018-04-25T21:39:31.083Z,5.10
2018-04-25T21:41:57.454Z,5.53
2018-04-25T21:44:23.871Z,5.50
2018-04-25T21:46:50.238Z,6.30
2018-04-25T21:49:16.629Z,6.30
2018-04-25T21:51:43.972Z,6.30
2018-04-25T21:54:10.365Z,5.83
2018-04-25T21:56:36.742Z,5.77
2018-04-25T21:59:03.135Z,6.80
2018-04-25T22:01:30.350Z,6.07
2018-04-25T22:03:56.743Z,6.70
2018-04-25T22:06:24.075Z,8.43
2018-04-25T22:08:51.239Z,7.43
2018-04-25T22:11:18.361Z,7.67
2018-04-25T22:13:44.868Z,7.40
2018-04-25T22:16:11.266Z,8.33
2018-04-25T22:18:38.163Z,8.80
2018-04-25T22:21:04.550Z,8.53
2018-04-25T22:23:30.934Z,7.80
2018-04-25T22:25:57.357Z,7.50
2018-04-25T22:28:23.759Z,7.53
2018-04-25T22:30:50.150Z,7.80
2018-04-25T22:33:18.341Z,7.30
2018-04-25T22:35:45.502Z,8.93
2018-04-25T22:38:11.873Z,8.10
2018-04-25T22:40:38.278Z,8.20
2018-04-25T22:43:04.699Z,7.87
2018-04-25T22:45:31.161Z,8.80
2018-04-25T22:47:57.700Z,8.13
2018-04-25T22:50:25.062Z,9.17
2018-04-25T22:52:51.460Z,10.00
2018-04-25T22:55:17.894Z,8.90
2018-04-25T22:57:44.326Z,9.60
2018-04-25T23:00:10.718Z,10.70
2018-04-25T23:02:37.129Z,9.73
2018-04-25T23:05:03.497Z,9.77
2018-04-25T23:07:30.684Z,8.97
2018-04-25T23:09:57.094Z,9.63
2018-04-25T23:12:24.221Z,9.90
2018-04-25T23:14:50.625Z,10.43
2018-04-25T23:17:18.013Z,10.97
2018-04-25T23:19:45.141Z,9.60
2018-04-25T23:22:13.500Z,10.23
2018-04-25T23:24:39.938Z,10.10
2018-04-25T23:27:06.309Z,10.33
2018-04-25T23:29:34.173Z,10.50
2018-04-25T23:32:01.296Z,10.20
2018-04-25T23:34:27.844Z,9.93
2018-04-25T23:36:54.333Z,9.40
2018-04-25T23:39:20.753Z,10.00
2018-04-25T23:41:47.106Z,10.90
2018-04-25T23:44:13.505Z,8.40
2018-04-25T23:46:40.700Z,10.03
2018-04-25T23:49:07.130Z,10.40
2018-04-25T23:51:33.500Z,9.47
2018-04-25T23:53:59.885Z,10.80
2018-04-25T23:56:26.250Z,9.40
2018-04-25T23:58:52.655Z,9.17
